地図

経路データ

SID SEASON NUMBER BASIN SUBBASIN NAME ISO_TIME NATURE LAT LON WMO_WIND WMO_PRES WMO_AGENCY TRACK_TYPE DIST2LAND LANDFALL IFLAG USA_AGENCY USA_ATCF_ID USA_LAT USA_LON USA_RECORD USA_STATUS USA_WIND USA_PRES USA_SSHS USA_R34_NE USA_R34_SE USA_R34_SW USA_R34_NW USA_R50_NE USA_R50_SE USA_R50_SW USA_R50_NW USA_R64_NE USA_R64_SE USA_R64_SW USA_R64_NW USA_POCI USA_ROCI USA_RMW USA_EYE TOKYO_LAT TOKYO_LON TOKYO_GRADE TOKYO_WIND TOKYO_PRES TOKYO_R50_DIR TOKYO_R50_LONG TOKYO_R50_SHORT TOKYO_R30_DIR TOKYO_R30_LONG TOKYO_R30_SHORT TOKYO_LAND CMA_LAT CMA_LON CMA_CAT CMA_WIND CMA_PRES HKO_LAT HKO_LON HKO_CAT HKO_WIND HKO_PRES NEWDELHI_LAT NEWDELHI_LON NEWDELHI_GRADE NEWDELHI_WIND NEWDELHI_PRES NEWDELHI_CI NEWDELHI_DP NEWDELHI_POCI REUNION_LAT REUNION_LON REUNION_TYPE REUNION_WIND REUNION_PRES REUNION_TNUM REUNION_CI REUNION_RMW REUNION_R34_NE REUNION_R34_SE REUNION_R34_SW REUNION_R34_NW REUNION_R50_NE REUNION_R50_SE REUNION_R50_SW REUNION_R50_NW REUNION_R64_NE REUNION_R64_SE REUNION_R64_SW REUNION_R64_NW BOM_LAT BOM_LON BOM_TYPE BOM_WIND BOM_PRES BOM_TNUM BOM_CI BOM_RMW BOM_R34_NE BOM_R34_SE BOM_R34_SW BOM_R34_NW BOM_R50_NE BOM_R50_SE BOM_R50_SW BOM_R50_NW BOM_R64_NE BOM_R64_SE BOM_R64_SW BOM_R64_NW BOM_ROCI BOM_POCI BOM_EYE BOM_POS_METHOD BOM_PRES_METHOD NADI_LAT NADI_LON NADI_CAT NADI_WIND NADI_PRES WELLINGTON_LAT WELLINGTON_LON WELLINGTON_WIND WELLINGTON_PRES DS824_LAT DS824_LON DS824_STAGE DS824_WIND DS824_PRES TD9636_LAT TD9636_LON TD9636_STAGE TD9636_WIND TD9636_PRES TD9635_LAT TD9635_LON TD9635_WIND TD9635_PRES TD9635_ROCI NEUMANN_LAT NEUMANN_LON NEUMANN_CLASS NEUMANN_WIND NEUMANN_PRES MLC_LAT MLC_LON MLC_CLASS MLC_WIND MLC_PRES USA_GUST BOM_GUST BOM_GUST_PER REUNION_GUST REUNION_GUST_PER USA_SEAHGT USA_SEARAD_NE USA_SEARAD_SE USA_SEARAD_SW USA_SEARAD_NW STORM_SPEED STORM_DIR
1938096N03147 1938 23 WP MM NOT_NAMED 1938-04-05 21:00:00 NR 3.10000 147.100 main 582 582 __________O___ -1 3.10000 147.100 4 9 289
1938096N03147 1938 23 WP MM NOT_NAMED 1938-04-06 00:00:00 NR 3.23713 146.691 main 593 593 __________P___ -1 3.23713 146.691 4 9 290
1938096N03147 1938 23 WP MM NOT_NAMED 1938-04-06 03:00:00 NR 3.40936 146.226 main 617 617 __________P___ -1 3.40936 146.226 4 11 292
1938096N03147 1938 23 WP MM NOT_NAMED 1938-04-06 06:00:00 NR 3.65192 145.648 main 659 659 __________P___ -1 3.65192 145.648 4 15 294
1938096N03147 1938 23 WP MM NOT_NAMED 1938-04-06 09:00:00 NR 4.00000 144.900 main 709 709 __________O___ -1 4.00000 144.900 4 19 296
1938096N03147 1938 23 WP MM NOT_NAMED 1938-04-06 12:00:00 NR 4.47070 143.957 main 794 794 __________P___ -1 4.47070 143.957 4 22 297
1938096N03147 1938 23 WP MM NOT_NAMED 1938-04-06 15:00:00 NR 5.00918 142.919 main 872 872 __________P___ -1 5.00918 142.919 4 23 298
1938096N03147 1938 23 WP MM NOT_NAMED 1938-04-06 18:00:00 NR 5.54287 141.922 main 892 892 __________P___ -1 5.54287 141.922 4 21 299
1938096N03147 1938 23 WP MM NOT_NAMED 1938-04-06 21:00:00 NR 6.00000 141.100 main 910 906 __________O___ -1 6.00000 141.100 4 14 300
1938096N03147 1938 23 WP MM NOT_NAMED 1938-04-07 00:00:00 NR 6.26467 140.667 main 927 921 __________P___ -1 6.26467 140.667 4 8 303
1938096N03147 1938 23 WP MM NOT_NAMED 1938-04-07 03:00:00 NR 6.45092 140.414 main 940 937 __________P___ -1 6.45092 140.414 4 6 309
1938096N03147 1938 23 WP MM NOT_NAMED 1938-04-07 06:00:00 NR 6.61179 140.229 main 945 945 __________P___ -1 6.61179 140.229 4 5 310
1938096N03147 1938 23 WP MM NOT_NAMED 1938-04-07 09:00:00 NR 6.80000 140.000 main 962 960 __________O___ -1 6.80000 140.000 4 8 306
1938096N03147 1938 23 WP MM NOT_NAMED 1938-04-07 12:00:00 NR 7.09734 139.561 main 975 971 __________P___ -1 7.09734 139.561 4 11 304
1938096N03147 1938 23 WP MM NOT_NAMED 1938-04-07 15:00:00 NR 7.42772 139.060 main 985 981 __________P___ -1 7.42772 139.060 4 12 303
1938096N03147 1938 23 WP MM NOT_NAMED 1938-04-07 18:00:00 NR 7.76920 138.529 main 1005 1001 __________P___ -1 7.76920 138.529 4 13 303
1938096N03147 1938 23 WP MM NOT_NAMED 1938-04-07 21:00:00 NR 8.10000 138.000 main 1021 1018 __________O___ -1 8.10000 138.000 4 11 301
1938096N03147 1938 23 WP MM NOT_NAMED 1938-04-08 00:00:00 NR 8.36039 137.553 main 1043 1039 __________P___ -1 8.36039 137.553 4 10 300
1938096N03147 1938 23 WP MM NOT_NAMED 1938-04-08 03:00:00 NR 8.61166 137.109 main 1055 1055 __________P___ -1 8.61166 137.109 4 11 300
1938096N03147 1938 23 WP MM NOT_NAMED 1938-04-08 06:00:00 NR 8.88212 136.634 main 1081 1059 __________P___ -1 8.88212 136.634 4 12 301
1938096N03147 1938 23 WP MM NOT_NAMED 1938-04-08 09:00:00 NR 9.20000 136.100 main 1059 991 __________O___ -1 9.20000 136.100 4 14 302
1938096N03147 1938 23 WP MM NOT_NAMED 1938-04-08 12:00:00 NR 9.64120 135.401 main 991 930 __________P___ -1 9.64120 135.401 4 17 303
1938096N03147 1938 23 WP MM NOT_NAMED 1938-04-08 15:00:00 NR 10.1239 134.650 main 919 865 __________P___ -1 10.1239 134.650 4 17 303
1938096N03147 1938 23 WP MM NOT_NAMED 1938-04-08 18:00:00 NR 10.5945 133.923 main 857 803 __________P___ -1 10.5945 133.923 4 16 303
1938096N03147 1938 23 WP MM NOT_NAMED 1938-04-08 21:00:00 NR 11.0000 133.300 main 803 770 __________O___ -1 11.0000 133.300 4 12 304
1938096N03147 1938 23 WP MM NOT_NAMED 1938-04-09 00:00:00 NR 11.2665 132.920 main 770 753 __________P___ -1 11.2665 132.920 4 8 306
1938096N03147 1938 23 WP MM NOT_NAMED 1938-04-09 03:00:00 NR 11.4657 132.646 main 744 723 __________P___ -1 11.4657 132.646 4 6 306
1938096N03147 1938 23 WP MM NOT_NAMED 1938-04-09 06:00:00 NR 11.6322 132.399 main 723 693 __________P___ -1 11.6322 132.399 4 6 302
1938096N03147 1938 23 WP MM NOT_NAMED 1938-04-09 09:00:00 NR 11.8000 132.100 main 693 642 __________O___ -1 11.8000 132.100 4 9 295
1938096N03147 1938 23 WP MM NOT_NAMED 1938-04-09 12:00:00 NR 12.0105 131.587 main 642 593 __________P___ -1 12.0105 131.587 4 11 292
1938096N03147 1938 23 WP MM NOT_NAMED 1938-04-09 15:00:00 NR 12.2286 131.020 main 582 535 __________P___ -1 12.2286 131.020 4 12 292
1938096N03147 1938 23 WP MM NOT_NAMED 1938-04-09 18:00:00 NR 12.4574 130.468 main 538 492 __________P___ -1 12.4574 130.468 4 11 295
1938096N03147 1938 23 WP MM NOT_NAMED 1938-04-09 21:00:00 NR 12.7000 130.000 main 492 461 __________O___ -1 12.7000 130.000 4 9 300
1938096N03147 1938 23 WP MM NOT_NAMED 1938-04-10 00:00:00 NR 12.9154 129.642 main 452 435 __________P___ -1 12.9154 129.642 4 8 307
1938096N03147 1938 23 WP MM NOT_NAMED 1938-04-10 03:00:00 NR 13.1519 129.383 main 437 423 __________P___ -1 13.1519 129.383 4 7 323
1938096N03147 1938 23 WP MM NOT_NAMED 1938-04-10 06:00:00 NR 13.4374 129.233 main 423 423 __________P___ -1 13.4374 129.233 4 7 345
1938096N03147 1938 23 WP MM NOT_NAMED 1938-04-10 09:00:00 NR 13.8000 129.200 main 439 439 __________O___ -1 13.8000 129.200 4 9 0
1938096N03147 1938 23 WP MM NOT_NAMED 1938-04-10 12:00:00 NR 14.2869 129.248 main 464 464 __________P___ -1 14.2869 129.248 4 11 11
1938096N03147 1938 23 WP MM NOT_NAMED 1938-04-10 15:00:00 NR 14.8472 129.412 main 512 512 __________P___ -1 14.8472 129.412 4 12 20
1938096N03147 1938 23 WP MM NOT_NAMED 1938-04-10 18:00:00 NR 15.4338 129.670 main 578 578 __________P___ -1 15.4338 129.670 4 13 26
1938096N03147 1938 23 WP MM NOT_NAMED 1938-04-10 21:00:00 NR 16.0000 130.000 main 645 645 __________O___ -1 16.0000 130.000 4 11 26
1938096N03147 1938 23 WP MM NOT_NAMED 1938-04-11 00:00:00 NR 16.3927 130.166 main 682 682 __________P___ -1 16.3927 130.166 4 9 28
1938096N03147 1938 23 WP MM NOT_NAMED 1938-04-11 03:00:00 NR 16.7713 130.423 main 720 720 __________P___ -1 16.7713 130.423 4 11 40
1938096N03147 1938 23 WP MM NOT_NAMED 1938-04-11 06:00:00 NR 17.2146 130.892 main 788 788 __________P___ -1 17.2146 130.892 4 16 50
1938096N03147 1938 23 WP MM NOT_NAMED 1938-04-11 09:00:00 NR 17.8000 131.700 main 894 894 __________O___ -1 17.8000 131.700 4 24 58
1938096N03147 1938 23 WP MM NOT_NAMED 1938-04-11 12:00:00 NR 18.5014 133.030 main 1052 1052 __________P___ -1 18.5014 133.030 4 33 61
1938096N03147 1938 23 WP MM NOT_NAMED 1938-04-11 15:00:00 NR 19.3531 134.703 main 1257 1257 __________P___ -1 19.3531 134.703 4 38 61
1938096N03147 1938 23 WP MM NOT_NAMED 1938-04-11 18:00:00 NR 20.3765 136.549 main 1318 1295 __________P___ -1 20.3765 136.549 4 41 57
1938096N03147 1938 23 WP MM NOT_NAMED 1938-04-11 21:00:00 NR 21.6000 138.400 main 1296 1235 __________O___ -1 21.6000 138.400 4 42 50
1938096N03147 1938 23 WP MM NOT_NAMED 1938-04-12 00:00:00 NR 23.0291 139.993 main 1231 1127 __________P___ -1 23.0291 139.993 4 42 44
1938096N03147 1938 23 WP MM NOT_NAMED 1938-04-12 03:00:00 NR 24.6568 141.580 main 1121 1006 __________P___ -1 24.6568 141.580 4 45 41
1938096N03147 1938 23 WP MM NOT_NAMED 1938-04-12 06:00:00 NR 26.4062 143.202 main 999 888 __________P___ -1 26.4062 143.202 4 46 40
1938096N03147 1938 23 WP MM NOT_NAMED 1938-04-12 09:00:00 NR 28.2000 144.900 main 884 827 __________O___ -1 28.2000 144.900 4 47 41
1938096N03147 1938 23 WP MM NOT_NAMED 1938-04-12 12:00:00 NR 29.9744 146.710 main 826 821 __________P___ -1 29.9744 146.710 4 48 43
1938096N03147 1938 23 WP MM NOT_NAMED 1938-04-12 15:00:00 NR 31.7177 148.635 main 838 838 __________P___ -1 31.7177 148.635 4 48 44
1938096N03147 1938 23 WP MM NOT_NAMED 1938-04-12 18:00:00 NR 33.4280 150.669 main 931 931 __________P___ -1 33.4280 150.669 4 49 46
1938096N03147 1938 23 WP MM NOT_NAMED 1938-04-12 21:00:00 NR 35.1000 152.800 main 1062 __________O___ -1 35.1000 152.800 4 48 46

デジタル台風データ・検索

IBTrACS Databaseについて

本データベースは、米国NOAAが公開する1842年以降の世界の熱帯低気圧のベストトラックデータアーカイブInternational Best Track Archive for Climate Stewardship (IBTrACS)を、ウェブで閲覧しやすい形式に変換したものです。

最終更新日:2021-10-21